MTPP - Port Au Prince
MTPP 080359Z AUTO 32005KT 280V010 9000 ////// 26/24 Q1015 A2999 NOSIG
Observed:
Wind:
visibility:
Flight Rules:
Temperature:
Humidity:
Pressure: